sensor_id;sensor_type;location;lat;lon;timestamp;P1;durP1;ratioP1;P2;durP2;ratioP2
16837;SDS011;19510;54.486;9.046;2024-03-07T00:04:03;19.43;;;8.90;;
16837;SDS011;19510;54.486;9.046;2024-03-07T00:06:29;18.77;;;9.37;;
16837;SDS011;19510;54.486;9.046;2024-03-07T00:08:54;19.83;;;9.07;;
16837;SDS011;19510;54.486;9.046;2024-03-07T00:11:20;19.43;;;9.47;;
16837;SDS011;19510;54.486;9.046;2024-03-07T00:13:46;21.27;;;10.03;;
16837;SDS011;19510;54.486;9.046;2024-03-07T00:16:13;20.13;;;9.30;;
16837;SDS011;19510;54.486;9.046;2024-03-07T00:18:39;20.03;;;9.67;;
16837;SDS011;19510;54.486;9.046;2024-03-07T00:21:06;25.53;;;9.70;;
16837;SDS011;19510;54.486;9.046;2024-03-07T00:23:33;19.97;;;10.33;;
16837;SDS011;19510;54.486;9.046;2024-03-07T00:25:59;25.73;;;10.07;;
16837;SDS011;19510;54.486;9.046;2024-03-07T00:28:25;19.80;;;9.37;;
16837;SDS011;19510;54.486;9.046;2024-03-07T00:30:54;18.27;;;9.97;;
16837;SDS011;19510;54.486;9.046;2024-03-07T00:33:20;18.60;;;9.13;;
16837;SDS011;19510;54.486;9.046;2024-03-07T00:35:47;26.07;;;8.80;;
16837;SDS011;19510;54.486;9.046;2024-03-07T00:38:12;20.27;;;9.50;;
16837;SDS011;19510;54.486;9.046;2024-03-07T00:40:38;24.93;;;8.97;;
16837;SDS011;19510;54.486;9.046;2024-03-07T00:43:04;21.77;;;10.43;;
16837;SDS011;19510;54.486;9.046;2024-03-07T00:45:32;20.67;;;9.67;;
16837;SDS011;19510;54.486;9.046;2024-03-07T00:47:57;21.20;;;9.27;;
16837;SDS011;19510;54.486;9.046;2024-03-07T00:50:24;19.00;;;9.20;;
16837;SDS011;19510;54.486;9.046;2024-03-07T00:52:50;21.97;;;10.13;;
16837;SDS011;19510;54.486;9.046;2024-03-07T00:55:16;20.20;;;8.97;;
16837;SDS011;19510;54.486;9.046;2024-03-07T00:57:41;18.90;;;8.63;;
16837;SDS011;19510;54.486;9.046;2024-03-07T01:00:07;20.17;;;8.50;;
16837;SDS011;19510;54.486;9.046;2024-03-07T01:02:41;20.70;;;9.43;;
16837;SDS011;19510;54.486;9.046;2024-03-07T01:05:11;24.57;;;10.10;;
16837;SDS011;19510;54.486;9.046;2024-03-07T01:07:38;19.03;;;8.77;;
16837;SDS011;19510;54.486;9.046;2024-03-07T01:10:05;19.27;;;9.03;;
16837;SDS011;19510;54.486;9.046;2024-03-07T01:12:32;20.53;;;9.57;;
16837;SDS011;19510;54.486;9.046;2024-03-07T01:14:59;25.00;;;10.07;;
16837;SDS011;19510;54.486;9.046;2024-03-07T01:17:25;19.50;;;9.20;;
16837;SDS011;19510;54.486;9.046;2024-03-07T01:19:53;20.27;;;9.63;;
16837;SDS011;19510;54.486;9.046;2024-03-07T01:22:18;28.70;;;10.67;;
16837;SDS011;19510;54.486;9.046;2024-03-07T01:24:46;25.97;;;10.70;;
16837;SDS011;19510;54.486;9.046;2024-03-07T01:27:12;27.07;;;9.70;;
16837;SDS011;19510;54.486;9.046;2024-03-07T01:29:38;29.40;;;10.90;;
16837;SDS011;19510;54.486;9.046;2024-03-07T01:32:06;26.43;;;9.53;;
16837;SDS011;19510;54.486;9.046;2024-03-07T01:34:32;28.87;;;10.03;;
16837;SDS011;19510;54.486;9.046;2024-03-07T01:36:58;25.90;;;9.80;;
16837;SDS011;19510;54.486;9.046;2024-03-07T01:39:23;28.97;;;11.03;;
16837;SDS011;19510;54.486;9.046;2024-03-07T01:41:49;29.13;;;10.20;;
16837;SDS011;19510;54.486;9.046;2024-03-07T01:44:15;29.07;;;11.03;;
16837;SDS011;19510;54.486;9.046;2024-03-07T01:46:41;27.67;;;11.30;;
16837;SDS011;19510;54.486;9.046;2024-03-07T01:49:07;23.67;;;10.07;;
16837;SDS011;19510;54.486;9.046;2024-03-07T01:51:34;27.37;;;10.17;;
16837;SDS011;19510;54.486;9.046;2024-03-07T01:54:01;23.87;;;10.23;;
16837;SDS011;19510;54.486;9.046;2024-03-07T01:56:27;29.43;;;10.70;;
16837;SDS011;19510;54.486;9.046;2024-03-07T01:58:54;29.40;;;11.00;;
16837;SDS011;19510;54.486;9.046;2024-03-07T02:01:21;28.90;;;10.27;;
16837;SDS011;19510;54.486;9.046;2024-03-07T02:03:48;27.47;;;10.00;;
16837;SDS011;19510;54.486;9.046;2024-03-07T02:09:37;22.63;;;10.03;;
16837;SDS011;19510;54.486;9.046;2024-03-07T02:12:06;22.00;;;9.37;;
16837;SDS011;19510;54.486;9.046;2024-03-07T02:14:34;22.17;;;9.53;;
16837;SDS011;19510;54.486;9.046;2024-03-07T02:16:59;22.47;;;9.67;;
16837;SDS011;19510;54.486;9.046;2024-03-07T02:19:25;27.90;;;9.47;;
16837;SDS011;19510;54.486;9.046;2024-03-07T02:21:51;24.07;;;10.00;;
16837;SDS011;19510;54.486;9.046;2024-03-07T02:24:17;22.30;;;9.50;;
16837;SDS011;19510;54.486;9.046;2024-03-07T02:26:43;24.87;;;9.43;;
16837;SDS011;19510;54.486;9.046;2024-03-07T02:29:08;21.00;;;9.90;;
16837;SDS011;19510;54.486;9.046;2024-03-07T02:31:35;23.40;;;9.87;;
16837;SDS011;19510;54.486;9.046;2024-03-07T02:34:04;25.57;;;10.27;;
16837;SDS011;19510;54.486;9.046;2024-03-07T02:36:32;19.60;;;9.23;;
16837;SDS011;19510;54.486;9.046;2024-03-07T02:38:58;19.43;;;9.10;;
16837;SDS011;19510;54.486;9.046;2024-03-07T02:41:25;19.33;;;9.07;;
16837;SDS011;19510;54.486;9.046;2024-03-07T02:43:51;18.53;;;9.37;;
16837;SDS011;19510;54.486;9.046;2024-03-07T02:46:17;19.13;;;9.03;;
16837;SDS011;19510;54.486;9.046;2024-03-07T02:48:43;22.50;;;9.47;;
16837;SDS011;19510;54.486;9.046;2024-03-07T02:51:09;25.07;;;10.43;;
16837;SDS011;19510;54.486;9.046;2024-03-07T02:53:36;26.60;;;9.37;;
16837;SDS011;19510;54.486;9.046;2024-03-07T02:56:03;25.70;;;9.60;;
16837;SDS011;19510;54.486;9.046;2024-03-07T02:58:33;19.60;;;9.57;;
16837;SDS011;19510;54.486;9.046;2024-03-07T03:00:59;19.97;;;9.47;;
16837;SDS011;19510;54.486;9.046;2024-03-07T03:03:25;23.80;;;9.50;;
16837;SDS011;19510;54.486;9.046;2024-03-07T03:05:51;20.93;;;9.47;;
16837;SDS011;19510;54.486;9.046;2024-03-07T03:08:17;24.33;;;9.17;;
16837;SDS011;19510;54.486;9.046;2024-03-07T03:10:43;23.23;;;9.93;;
16837;SDS011;19510;54.486;9.046;2024-03-07T03:13:09;19.57;;;9.07;;
16837;SDS011;19510;54.486;9.046;2024-03-07T03:15:35;20.57;;;9.40;;
16837;SDS011;19510;54.486;9.046;2024-03-07T03:18:03;26.10;;;10.83;;
16837;SDS011;19510;54.486;9.046;2024-03-07T03:20:30;22.47;;;9.93;;
16837;SDS011;19510;54.486;9.046;2024-03-07T03:23:00;23.00;;;9.83;;
16837;SDS011;19510;54.486;9.046;2024-03-07T03:25:29;18.57;;;9.43;;
16837;SDS011;19510;54.486;9.046;2024-03-07T03:28:02;22.80;;;9.60;;
16837;SDS011;19510;54.486;9.046;2024-03-07T03:30:30;24.07;;;9.93;;
16837;SDS011;19510;54.486;9.046;2024-03-07T03:32:57;19.57;;;9.17;;
16837;SDS011;19510;54.486;9.046;2024-03-07T03:35:23;18.73;;;9.60;;
16837;SDS011;19510;54.486;9.046;2024-03-07T03:37:51;20.37;;;9.27;;
16837;SDS011;19510;54.486;9.046;2024-03-07T03:40:17;18.87;;;8.70;;
16837;SDS011;19510;54.486;9.046;2024-03-07T03:42:43;18.73;;;9.03;;
16837;SDS011;19510;54.486;9.046;2024-03-07T03:45:09;18.67;;;9.77;;
16837;SDS011;19510;54.486;9.046;2024-03-07T03:47:39;19.93;;;8.93;;
16837;SDS011;19510;54.486;9.046;2024-03-07T03:50:07;18.90;;;8.70;;
16837;SDS011;19510;54.486;9.046;2024-03-07T03:52:34;17.37;;;7.77;;
16837;SDS011;19510;54.486;9.046;2024-03-07T03:55:01;14.53;;;8.13;;
16837;SDS011;19510;54.486;9.046;2024-03-07T03:57:28;18.67;;;8.60;;
16837;SDS011;19510;54.486;9.046;2024-03-07T03:59:56;19.33;;;8.60;;
16837;SDS011;19510;54.486;9.046;2024-03-07T04:02:23;16.97;;;7.70;;
16837;SDS011;19510;54.486;9.046;2024-03-07T04:04:51;20.80;;;8.57;;
16837;SDS011;19510;54.486;9.046;2024-03-07T04:07:20;15.30;;;7.53;;
16837;SDS011;19510;54.486;9.046;2024-03-07T04:09:46;16.73;;;7.87;;
16837;SDS011;19510;54.486;9.046;2024-03-07T04:12:12;14.13;;;7.30;;
16837;SDS011;19510;54.486;9.046;2024-03-07T04:14:42;13.63;;;7.57;;
16837;SDS011;19510;54.486;9.046;2024-03-07T04:17:08;15.90;;;7.73;;
16837;SDS011;19510;54.486;9.046;2024-03-07T04:19:37;15.73;;;7.90;;
16837;SDS011;19510;54.486;9.046;2024-03-07T04:22:04;15.73;;;7.87;;
16837;SDS011;19510;54.486;9.046;2024-03-07T04:24:31;16.90;;;7.07;;
16837;SDS011;19510;54.486;9.046;2024-03-07T04:27:00;13.97;;;7.70;;
16837;SDS011;19510;54.486;9.046;2024-03-07T04:29:30;18.10;;;8.13;;
16837;SDS011;19510;54.486;9.046;2024-03-07T04:31:57;15.83;;;7.63;;
16837;SDS011;19510;54.486;9.046;2024-03-07T04:34:23;13.17;;;7.47;;
16837;SDS011;19510;54.486;9.046;2024-03-07T04:36:49;21.37;;;7.87;;
16837;SDS011;19510;54.486;9.046;2024-03-07T04:39:14;15.47;;;7.17;;
16837;SDS011;19510;54.486;9.046;2024-03-07T04:42:09;12.43;;;7.07;;
16837;SDS011;19510;54.486;9.046;2024-03-07T04:44:35;15.30;;;7.23;;
16837;SDS011;19510;54.486;9.046;2024-03-07T04:47:02;13.60;;;6.90;;
16837;SDS011;19510;54.486;9.046;2024-03-07T04:49:30;13.33;;;7.23;;
16837;SDS011;19510;54.486;9.046;2024-03-07T04:51:58;11.37;;;6.40;;
16837;SDS011;19510;54.486;9.046;2024-03-07T04:54:30;13.53;;;6.53;;
16837;SDS011;19510;54.486;9.046;2024-03-07T04:56:59;11.50;;;6.47;;
16837;SDS011;19510;54.486;9.046;2024-03-07T04:59:25;11.23;;;5.93;;
16837;SDS011;19510;54.486;9.046;2024-03-07T05:01:50;13.73;;;5.97;;
16837;SDS011;19510;54.486;9.046;2024-03-07T05:04:16;10.90;;;6.10;;
16837;SDS011;19510;54.486;9.046;2024-03-07T05:06:43;11.47;;;6.37;;
16837;SDS011;19510;54.486;9.046;2024-03-07T05:09:10;13.10;;;6.13;;
16837;SDS011;19510;54.486;9.046;2024-03-07T05:11:47;12.30;;;6.43;;
16837;SDS011;19510;54.486;9.046;2024-03-07T05:14:14;11.13;;;6.07;;
16837;SDS011;19510;54.486;9.046;2024-03-07T05:16:41;11.07;;;6.77;;
16837;SDS011;19510;54.486;9.046;2024-03-07T05:19:08;15.20;;;6.67;;
16837;SDS011;19510;54.486;9.046;2024-03-07T05:21:34;10.97;;;6.10;;
16837;SDS011;19510;54.486;9.046;2024-03-07T05:24:05;11.07;;;6.23;;
16837;SDS011;19510;54.486;9.046;2024-03-07T05:26:33;22.17;;;6.70;;
16837;SDS011;19510;54.486;9.046;2024-03-07T05:29:10;9.00;;;5.63;;
16837;SDS011;19510;54.486;9.046;2024-03-07T05:31:36;11.67;;;5.43;;
16837;SDS011;19510;54.486;9.046;2024-03-07T05:34:03;10.47;;;6.07;;
16837;SDS011;19510;54.486;9.046;2024-03-07T05:36:35;9.93;;;5.93;;
16837;SDS011;19510;54.486;9.046;2024-03-07T05:39:01;11.10;;;6.13;;
16837;SDS011;19510;54.486;9.046;2024-03-07T05:41:33;12.20;;;6.00;;
16837;SDS011;19510;54.486;9.046;2024-03-07T05:43:59;14.77;;;6.00;;
16837;SDS011;19510;54.486;9.046;2024-03-07T05:46:25;10.00;;;5.23;;
16837;SDS011;19510;54.486;9.046;2024-03-07T05:48:51;12.47;;;5.73;;
16837;SDS011;19510;54.486;9.046;2024-03-07T05:51:17;9.00;;;5.43;;
16837;SDS011;19510;54.486;9.046;2024-03-07T05:53:43;10.93;;;5.67;;
16837;SDS011;19510;54.486;9.046;2024-03-07T05:56:09;11.13;;;5.30;;
16837;SDS011;19510;54.486;9.046;2024-03-07T05:58:35;10.30;;;5.57;;
16837;SDS011;19510;54.486;9.046;2024-03-07T06:01:00;8.17;;;5.10;;
16837;SDS011;19510;54.486;9.046;2024-03-07T06:03:28;11.17;;;5.30;;
16837;SDS011;19510;54.486;9.046;2024-03-07T06:05:54;8.50;;;5.30;;
16837;SDS011;19510;54.486;9.046;2024-03-07T06:08:20;11.07;;;5.63;;
16837;SDS011;19510;54.486;9.046;2024-03-07T06:10:46;12.50;;;5.37;;
16837;SDS011;19510;54.486;9.046;2024-03-07T06:13:13;9.00;;;5.37;;
16837;SDS011;19510;54.486;9.046;2024-03-07T06:15:45;10.17;;;5.37;;
16837;SDS011;19510;54.486;9.046;2024-03-07T06:18:15;10.40;;;5.50;;
16837;SDS011;19510;54.486;9.046;2024-03-07T06:20:41;8.33;;;4.77;;
16837;SDS011;19510;54.486;9.046;2024-03-07T06:23:10;9.87;;;4.67;;
16837;SDS011;19510;54.486;9.046;2024-03-07T06:25:41;8.60;;;4.97;;
16837;SDS011;19510;54.486;9.046;2024-03-07T06:28:15;10.50;;;5.50;;
16837;SDS011;19510;54.486;9.046;2024-03-07T06:30:43;8.83;;;4.70;;
16837;SDS011;19510;54.486;9.046;2024-03-07T06:33:10;8.33;;;4.77;;
16837;SDS011;19510;54.486;9.046;2024-03-07T06:35:36;8.50;;;5.07;;
16837;SDS011;19510;54.486;9.046;2024-03-07T06:38:10;8.93;;;5.27;;
16837;SDS011;19510;54.486;9.046;2024-03-07T06:40:36;7.50;;;4.80;;
16837;SDS011;19510;54.486;9.046;2024-03-07T06:43:02;10.77;;;4.47;;
16837;SDS011;19510;54.486;9.046;2024-03-07T06:45:38;9.70;;;5.13;;
16837;SDS011;19510;54.486;9.046;2024-03-07T06:50:33;8.43;;;4.80;;
16837;SDS011;19510;54.486;9.046;2024-03-07T06:52:59;9.70;;;4.80;;
16837;SDS011;19510;54.486;9.046;2024-03-07T06:55:26;10.90;;;5.10;;
16837;SDS011;19510;54.486;9.046;2024-03-07T06:57:52;9.47;;;4.43;;
16837;SDS011;19510;54.486;9.046;2024-03-07T07:00:19;8.83;;;4.13;;
16837;SDS011;19510;54.486;9.046;2024-03-07T07:02:45;7.20;;;4.23;;
16837;SDS011;19510;54.486;9.046;2024-03-07T07:05:12;7.67;;;4.20;;
16837;SDS011;19510;54.486;9.046;2024-03-07T07:07:40;9.23;;;4.57;;
16837;SDS011;19510;54.486;9.046;2024-03-07T07:10:09;8.53;;;3.90;;
16837;SDS011;19510;54.486;9.046;2024-03-07T07:12:43;13.33;;;4.93;;
16837;SDS011;19510;54.486;9.046;2024-03-07T07:15:13;8.97;;;4.53;;
16837;SDS011;19510;54.486;9.046;2024-03-07T07:17:44;8.33;;;4.80;;
16837;SDS011;19510;54.486;9.046;2024-03-07T07:20:14;9.40;;;4.90;;
16837;SDS011;19510;54.486;9.046;2024-03-07T07:22:43;9.20;;;4.60;;
16837;SDS011;19510;54.486;9.046;2024-03-07T07:25:11;7.17;;;4.70;;
16837;SDS011;19510;54.486;9.046;2024-03-07T07:27:47;9.27;;;4.37;;
16837;SDS011;19510;54.486;9.046;2024-03-07T07:30:21;8.97;;;4.40;;
16837;SDS011;19510;54.486;9.046;2024-03-07T07:32:47;7.27;;;4.33;;
16837;SDS011;19510;54.486;9.046;2024-03-07T07:35:14;7.93;;;4.27;;
16837;SDS011;19510;54.486;9.046;2024-03-07T07:37:48;8.37;;;3.93;;
16837;SDS011;19510;54.486;9.046;2024-03-07T07:40:21;8.27;;;4.23;;
16837;SDS011;19510;54.486;9.046;2024-03-07T07:42:48;8.23;;;4.67;;
16837;SDS011;19510;54.486;9.046;2024-03-07T07:45:16;9.63;;;4.70;;
16837;SDS011;19510;54.486;9.046;2024-03-07T07:47:43;8.20;;;4.00;;
16837;SDS011;19510;54.486;9.046;2024-03-07T07:50:11;8.80;;;4.50;;
16837;SDS011;19510;54.486;9.046;2024-03-07T07:52:42;8.67;;;4.57;;
16837;SDS011;19510;54.486;9.046;2024-03-07T07:55:11;11.87;;;4.43;;
16837;SDS011;19510;54.486;9.046;2024-03-07T07:57:43;9.60;;;4.97;;
16837;SDS011;19510;54.486;9.046;2024-03-07T08:00:13;8.33;;;3.83;;
16837;SDS011;19510;54.486;9.046;2024-03-07T08:02:53;8.63;;;4.07;;
16837;SDS011;19510;54.486;9.046;2024-03-07T08:05:30;9.87;;;4.57;;
16837;SDS011;19510;54.486;9.046;2024-03-07T08:07:58;8.20;;;4.87;;
16837;SDS011;19510;54.486;9.046;2024-03-07T08:10:27;11.07;;;4.90;;
16837;SDS011;19510;54.486;9.046;2024-03-07T08:12:59;8.07;;;4.37;;
16837;SDS011;19510;54.486;9.046;2024-03-07T08:15:26;8.40;;;4.47;;
16837;SDS011;19510;54.486;9.046;2024-03-07T08:17:53;7.63;;;4.80;;
16837;SDS011;19510;54.486;9.046;2024-03-07T08:20:23;9.63;;;5.00;;
16837;SDS011;19510;54.486;9.046;2024-03-07T08:22:53;7.53;;;4.73;;
16837;SDS011;19510;54.486;9.046;2024-03-07T08:25:20;9.33;;;4.20;;
16837;SDS011;19510;54.486;9.046;2024-03-07T08:27:48;8.77;;;4.43;;
16837;SDS011;19510;54.486;9.046;2024-03-07T08:30:15;11.57;;;5.37;;
16837;SDS011;19510;54.486;9.046;2024-03-07T08:32:45;8.13;;;4.40;;
16837;SDS011;19510;54.486;9.046;2024-03-07T08:35:12;9.83;;;4.30;;
16837;SDS011;19510;54.486;9.046;2024-03-07T08:37:38;7.00;;;4.30;;
16837;SDS011;19510;54.486;9.046;2024-03-07T08:40:05;9.07;;;4.97;;
16837;SDS011;19510;54.486;9.046;2024-03-07T08:42:33;5.30;;;3.77;;
16837;SDS011;19510;54.486;9.046;2024-03-07T08:45:02;10.83;;;4.80;;
16837;SDS011;19510;54.486;9.046;2024-03-07T08:47:30;10.27;;;5.00;;
16837;SDS011;19510;54.486;9.046;2024-03-07T08:50:00;8.57;;;4.40;;
16837;SDS011;19510;54.486;9.046;2024-03-07T08:52:26;11.10;;;5.13;;
16837;SDS011;19510;54.486;9.046;2024-03-07T08:54:53;8.63;;;4.83;;
16837;SDS011;19510;54.486;9.046;2024-03-07T08:57:20;12.43;;;5.17;;
16837;SDS011;19510;54.486;9.046;2024-03-07T08:59:47;9.70;;;4.87;;
16837;SDS011;19510;54.486;9.046;2024-03-07T09:02:15;8.07;;;4.43;;
16837;SDS011;19510;54.486;9.046;2024-03-07T09:04:41;11.73;;;7.27;;
16837;SDS011;19510;54.486;9.046;2024-03-07T09:07:06;7.90;;;5.00;;
16837;SDS011;19510;54.486;9.046;2024-03-07T09:09:35;9.47;;;5.20;;
16837;SDS011;19510;54.486;9.046;2024-03-07T09:12:01;8.30;;;4.87;;
16837;SDS011;19510;54.486;9.046;2024-03-07T09:14:27;12.63;;;5.07;;
16837;SDS011;19510;54.486;9.046;2024-03-07T09:16:53;8.20;;;4.83;;
16837;SDS011;19510;54.486;9.046;2024-03-07T09:19:19;11.50;;;5.50;;
16837;SDS011;19510;54.486;9.046;2024-03-07T09:21:48;11.70;;;5.83;;
16837;SDS011;19510;54.486;9.046;2024-03-07T09:24:17;11.77;;;5.33;;
16837;SDS011;19510;54.486;9.046;2024-03-07T09:26:46;12.03;;;5.53;;
16837;SDS011;19510;54.486;9.046;2024-03-07T09:29:16;13.70;;;5.63;;
16837;SDS011;19510;54.486;9.046;2024-03-07T09:31:43;8.43;;;5.20;;
16837;SDS011;19510;54.486;9.046;2024-03-07T09:34:09;12.03;;;6.80;;
16837;SDS011;19510;54.486;9.046;2024-03-07T09:36:37;12.13;;;6.57;;
16837;SDS011;19510;54.486;9.046;2024-03-07T09:39:05;14.20;;;6.50;;
16837;SDS011;19510;54.486;9.046;2024-03-07T09:41:33;11.80;;;6.63;;
16837;SDS011;19510;54.486;9.046;2024-03-07T09:43:59;13.30;;;7.23;;
16837;SDS011;19510;54.486;9.046;2024-03-07T09:46:26;11.27;;;6.57;;
16837;SDS011;19510;54.486;9.046;2024-03-07T09:48:52;14.53;;;6.83;;
16837;SDS011;19510;54.486;9.046;2024-03-07T09:51:19;15.20;;;6.90;;
16837;SDS011;19510;54.486;9.046;2024-03-07T09:53:49;12.30;;;6.40;;
16837;SDS011;19510;54.486;9.046;2024-03-07T09:56:19;14.60;;;6.80;;
16837;SDS011;19510;54.486;9.046;2024-03-07T09:58:50;16.30;;;6.60;;
16837;SDS011;19510;54.486;9.046;2024-03-07T10:01:21;13.07;;;6.80;;
16837;SDS011;19510;54.486;9.046;2024-03-07T10:03:50;14.73;;;6.60;;
16837;SDS011;19510;54.486;9.046;2024-03-07T10:06:22;14.97;;;6.97;;
16837;SDS011;19510;54.486;9.046;2024-03-07T10:08:48;10.13;;;6.27;;
16837;SDS011;19510;54.486;9.046;2024-03-07T10:11:16;12.00;;;6.87;;
16837;SDS011;19510;54.486;9.046;2024-03-07T10:13:42;13.20;;;7.23;;
16837;SDS011;19510;54.486;9.046;2024-03-07T10:16:07;11.77;;;6.77;;
16837;SDS011;19510;54.486;9.046;2024-03-07T10:18:42;14.20;;;7.23;;
16837;SDS011;19510;54.486;9.046;2024-03-07T10:21:09;15.63;;;6.67;;
16837;SDS011;19510;54.486;9.046;2024-03-07T10:23:36;10.77;;;6.53;;
16837;SDS011;19510;54.486;9.046;2024-03-07T10:26:04;13.87;;;7.20;;
16837;SDS011;19510;54.486;9.046;2024-03-07T10:28:32;13.17;;;6.60;;
16837;SDS011;19510;54.486;9.046;2024-03-07T10:30:58;14.03;;;7.33;;
16837;SDS011;19510;54.486;9.046;2024-03-07T10:33:28;11.73;;;6.80;;
16837;SDS011;19510;54.486;9.046;2024-03-07T10:35:57;15.13;;;7.60;;
16837;SDS011;19510;54.486;9.046;2024-03-07T10:38:23;16.50;;;7.23;;
16837;SDS011;19510;54.486;9.046;2024-03-07T10:40:53;15.87;;;7.80;;
16837;SDS011;19510;54.486;9.046;2024-03-07T10:43:20;14.90;;;7.57;;
16837;SDS011;19510;54.486;9.046;2024-03-07T10:45:47;14.00;;;6.93;;
16837;SDS011;19510;54.486;9.046;2024-03-07T10:48:17;11.23;;;6.67;;
16837;SDS011;19510;54.486;9.046;2024-03-07T10:51:22;16.70;;;7.30;;
16837;SDS011;19510;54.486;9.046;2024-03-07T10:59:17;13.50;;;7.43;;
16837;SDS011;19510;54.486;9.046;2024-03-07T11:04:41;12.50;;;7.03;;
16837;SDS011;19510;54.486;9.046;2024-03-07T11:07:08;14.87;;;7.63;;
16837;SDS011;19510;54.486;9.046;2024-03-07T11:09:35;15.77;;;7.70;;
16837;SDS011;19510;54.486;9.046;2024-03-07T11:12:06;14.93;;;7.30;;
16837;SDS011;19510;54.486;9.046;2024-03-07T11:14:32;18.80;;;7.60;;
16837;SDS011;19510;54.486;9.046;2024-03-07T11:17:00;15.33;;;8.00;;
16837;SDS011;19510;54.486;9.046;2024-03-07T11:19:29;16.60;;;8.27;;
16837;SDS011;19510;54.486;9.046;2024-03-07T11:22:01;14.13;;;7.93;;
16837;SDS011;19510;54.486;9.046;2024-03-07T11:24:30;17.00;;;8.60;;
16837;SDS011;19510;54.486;9.046;2024-03-07T11:27:03;18.53;;;8.73;;
16837;SDS011;19510;54.486;9.046;2024-03-07T11:29:49;13.87;;;8.17;;
16837;SDS011;19510;54.486;9.046;2024-03-07T11:32:22;18.20;;;8.73;;
16837;SDS011;19510;54.486;9.046;2024-03-07T11:34:48;16.10;;;8.13;;
16837;SDS011;19510;54.486;9.046;2024-03-07T11:40:59;18.10;;;8.30;;
16837;SDS011;19510;54.486;9.046;2024-03-07T11:43:01;16.00;;;8.50;;
16837;SDS011;19510;54.486;9.046;2024-03-07T11:45:31;15.83;;;8.17;;
16837;SDS011;19510;54.486;9.046;2024-03-07T11:48:10;16.13;;;8.40;;
16837;SDS011;19510;54.486;9.046;2024-03-07T11:50:36;17.03;;;8.57;;
16837;SDS011;19510;54.486;9.046;2024-03-07T11:53:04;16.13;;;8.40;;
16837;SDS011;19510;54.486;9.046;2024-03-07T11:55:31;15.90;;;8.53;;
16837;SDS011;19510;54.486;9.046;2024-03-07T12:00:40;18.00;;;9.23;;
16837;SDS011;19510;54.486;9.046;2024-03-07T12:03:16;16.97;;;8.83;;
16837;SDS011;19510;54.486;9.046;2024-03-07T12:05:47;15.27;;;8.40;;
16837;SDS011;19510;54.486;9.046;2024-03-07T12:08:14;16.37;;;8.57;;
16837;SDS011;19510;54.486;9.046;2024-03-07T12:10:40;18.53;;;8.33;;
16837;SDS011;19510;54.486;9.046;2024-03-07T12:13:10;16.77;;;8.60;;
16837;SDS011;19510;54.486;9.046;2024-03-07T12:15:37;13.67;;;8.63;;
16837;SDS011;19510;54.486;9.046;2024-03-07T12:18:06;15.47;;;8.13;;
16837;SDS011;19510;54.486;9.046;2024-03-07T12:20:44;18.43;;;9.13;;
16837;SDS011;19510;54.486;9.046;2024-03-07T12:23:19;21.87;;;8.73;;
16837;SDS011;19510;54.486;9.046;2024-03-07T12:25:47;15.03;;;7.70;;
16837;SDS011;19510;54.486;9.046;2024-03-07T12:28:13;17.90;;;8.77;;
16837;SDS011;19510;54.486;9.046;2024-03-07T12:33:11;15.67;;;8.33;;
16837;SDS011;19510;54.486;9.046;2024-03-07T12:35:43;15.30;;;7.90;;
16837;SDS011;19510;54.486;9.046;2024-03-07T12:38:10;15.57;;;8.20;;
16837;SDS011;19510;54.486;9.046;2024-03-07T12:40:36;19.63;;;8.50;;
16837;SDS011;19510;54.486;9.046;2024-03-07T12:43:12;15.30;;;7.77;;
16837;SDS011;19510;54.486;9.046;2024-03-07T12:45:43;15.80;;;7.80;;
16837;SDS011;19510;54.486;9.046;2024-03-07T12:48:10;13.93;;;7.33;;
16837;SDS011;19510;54.486;9.046;2024-03-07T12:50:39;14.17;;;7.47;;
16837;SDS011;19510;54.486;9.046;2024-03-07T12:53:06;17.67;;;8.57;;
16837;SDS011;19510;54.486;9.046;2024-03-07T12:55:37;13.40;;;7.27;;
16837;SDS011;19510;54.486;9.046;2024-03-07T12:58:06;15.60;;;7.67;;
16837;SDS011;19510;54.486;9.046;2024-03-07T13:00:34;12.77;;;7.10;;
16837;SDS011;19510;54.486;9.046;2024-03-07T13:03:03;15.07;;;7.77;;
16837;SDS011;19510;54.486;9.046;2024-03-07T13:05:30;16.30;;;7.77;;
16837;SDS011;19510;54.486;9.046;2024-03-07T13:07:56;12.53;;;6.90;;
16837;SDS011;19510;54.486;9.046;2024-03-07T13:10:22;12.10;;;7.20;;
16837;SDS011;19510;54.486;9.046;2024-03-07T13:12:48;16.57;;;7.77;;
16837;SDS011;19510;54.486;9.046;2024-03-07T13:15:17;16.97;;;7.90;;
16837;SDS011;19510;54.486;9.046;2024-03-07T13:17:45;11.97;;;7.20;;
16837;SDS011;19510;54.486;9.046;2024-03-07T13:20:11;14.13;;;7.70;;
16837;SDS011;19510;54.486;9.046;2024-03-07T13:22:38;15.53;;;7.87;;
16837;SDS011;19510;54.486;9.046;2024-03-07T13:25:07;14.60;;;7.90;;
16837;SDS011;19510;54.486;9.046;2024-03-07T13:27:44;17.63;;;7.10;;
16837;SDS011;19510;54.486;9.046;2024-03-07T13:30:25;16.33;;;7.47;;
16837;SDS011;19510;54.486;9.046;2024-03-07T13:32:55;12.20;;;6.70;;
16837;SDS011;19510;54.486;9.046;2024-03-07T13:35:22;14.80;;;7.00;;
16837;SDS011;19510;54.486;9.046;2024-03-07T13:37:50;14.10;;;7.13;;
16837;SDS011;19510;54.486;9.046;2024-03-07T13:40:20;13.83;;;7.67;;
16837;SDS011;19510;54.486;9.046;2024-03-07T13:42:57;13.13;;;6.93;;
16837;SDS011;19510;54.486;9.046;2024-03-07T13:45:25;18.13;;;7.80;;
16837;SDS011;19510;54.486;9.046;2024-03-07T13:47:55;8.70;;;6.10;;
16837;SDS011;19510;54.486;9.046;2024-03-07T13:50:27;15.07;;;6.87;;
16837;SDS011;19510;54.486;9.046;2024-03-07T13:52:54;15.03;;;7.10;;
16837;SDS011;19510;54.486;9.046;2024-03-07T13:55:32;16.40;;;7.47;;
16837;SDS011;19510;54.486;9.046;2024-03-07T13:58:05;13.50;;;7.10;;
16837;SDS011;19510;54.486;9.046;2024-03-07T14:00:55;13.07;;;7.00;;
16837;SDS011;19510;54.486;9.046;2024-03-07T14:06:50;16.23;;;7.13;;
16837;SDS011;19510;54.486;9.046;2024-03-07T14:15:28;13.07;;;7.20;;
16837;SDS011;19510;54.486;9.046;2024-03-07T14:32:53;16.33;;;7.70;;
16837;SDS011;19510;54.486;9.046;2024-03-07T14:35:35;13.57;;;7.67;;
16837;SDS011;19510;54.486;9.046;2024-03-07T14:40:54;17.93;;;8.27;;
16837;SDS011;19510;54.486;9.046;2024-03-07T14:43:22;17.83;;;7.63;;
16837;SDS011;19510;54.486;9.046;2024-03-07T14:45:50;14.13;;;7.50;;
16837;SDS011;19510;54.486;9.046;2024-03-07T14:48:20;13.73;;;7.33;;
16837;SDS011;19510;54.486;9.046;2024-03-07T14:50:46;13.50;;;7.53;;
16837;SDS011;19510;54.486;9.046;2024-03-07T14:53:12;16.50;;;7.50;;
16837;SDS011;19510;54.486;9.046;2024-03-07T14:55:42;13.97;;;8.10;;
16837;SDS011;19510;54.486;9.046;2024-03-07T14:58:08;12.27;;;7.43;;
16837;SDS011;19510;54.486;9.046;2024-03-07T15:00:35;14.73;;;6.93;;
16837;SDS011;19510;54.486;9.046;2024-03-07T15:03:06;17.07;;;8.23;;
16837;SDS011;19510;54.486;9.046;2024-03-07T15:05:39;16.23;;;7.90;;
16837;SDS011;19510;54.486;9.046;2024-03-07T15:08:06;15.20;;;8.20;;
16837;SDS011;19510;54.486;9.046;2024-03-07T15:10:32;15.13;;;8.40;;
16837;SDS011;19510;54.486;9.046;2024-03-07T15:13:10;15.30;;;7.87;;
16837;SDS011;19510;54.486;9.046;2024-03-07T15:15:38;16.73;;;8.63;;
16837;SDS011;19510;54.486;9.046;2024-03-07T15:18:05;17.03;;;8.70;;
16837;SDS011;19510;54.486;9.046;2024-03-07T15:20:31;18.27;;;8.53;;
16837;SDS011;19510;54.486;9.046;2024-03-07T15:22:59;19.13;;;8.60;;
16837;SDS011;19510;54.486;9.046;2024-03-07T15:25:26;15.00;;;8.17;;
16837;SDS011;19510;54.486;9.046;2024-03-07T15:27:54;21.07;;;8.37;;
16837;SDS011;19510;54.486;9.046;2024-03-07T15:30:24;16.47;;;9.03;;
16837;SDS011;19510;54.486;9.046;2024-03-07T15:32:57;15.83;;;8.40;;
16837;SDS011;19510;54.486;9.046;2024-03-07T15:35:24;16.03;;;8.73;;